Time;durP1;ratioP1;P1;durP2;ratioP2;P2;SDS_P1;SDS_P2;PMS_P1;PMS_P2;Temp;Humidity;BMP_temperature;BMP_pressure;BME280_temperature;BME280_humidity;BME280_pressure;Samples;Min_cycle;Max_cycle;Signal;HPM_P1;HPM_P2
2022/04/17 00:02:06;;;;;;;23.00;10.00;;;;;;;3.24;57.03;99997.11;105883;1278;96602;-66
2022/04/17 00:04:34;;;;;;;25.10;9.90;;;;;;;3.24;56.76;99996.77;105961;1277;108624;-66
2022/04/17 00:07:07;;;;;;;22.60;9.00;;;;;;;3.23;56.88;99997.85;105978;1277;99231;-66
2022/04/17 00:09:35;;;;;;;23.20;9.60;;;;;;;3.22;57.07;99995.75;105927;1277;99275;-66
2022/04/17 00:12:08;;;;;;;21.90;9.30;;;;;;;3.22;57.13;99990.84;105850;1277;113407;-67
2022/04/17 00:14:40;;;;;;;21.20;8.30;;;;;;;3.23;56.95;99989.61;105927;1277;99056;-66
2022/04/17 00:17:13;;;;;;;19.40;8.30;;;;;;;3.22;56.61;99986.48;105833;1277;108278;-63
2022/04/17 00:19:40;;;;;;;22.70;9.00;;;;;;;3.22;56.82;99981.75;105870;1278;99848;-61
2022/04/17 00:22:14;;;;;;;22.10;8.30;;;;;;;3.23;56.91;99985.23;105826;1277;97777;-65
2022/04/17 00:24:43;;;;;;;22.30;9.00;;;;;;;3.22;57.09;99978.59;105817;1277;113376;-64
2022/04/17 00:27:15;;;;;;;23.90;8.70;;;;;;;3.22;56.93;99978.59;106013;1277;96572;-62
2022/04/17 00:29:46;;;;;;;20.20;8.00;;;;;;;3.24;56.80;99979.77;105912;1276;106860;-66
2022/04/17 00:32:14;;;;;;;21.70;8.80;;;;;;;3.25;56.68;99979.38;105901;1277;99214;-65
2022/04/17 00:34:44;;;;;;;23.80;8.90;;;;;;;3.26;56.96;99976.37;105890;1276;99206;-62
2022/04/17 00:37:14;;;;;;;20.60;8.40;;;;;;;3.27;56.93;99979.67;106012;1276;113270;-64
2022/04/17 00:39:43;;;;;;;21.10;8.60;;;;;;;3.27;57.04;99978.79;106067;1277;99345;-64
2022/04/17 00:42:14;;;;;;;19.60;8.10;;;;;;;3.28;56.93;99976.48;105939;1277;108435;-64
2022/04/17 00:44:45;;;;;;;20.30;7.60;;;;;;;3.29;56.79;99974.35;105851;1277;99348;-64
2022/04/17 00:47:18;;;;;;;20.90;8.00;;;;;;;3.30;56.98;99972.76;105951;1277;99203;-63
2022/04/17 00:49:49;;;;;;;20.20;8.10;;;;;;;3.31;56.89;99970.98;105972;1277;113427;-65
2022/04/17 00:52:24;;;;;;;19.50;7.60;;;;;;;3.32;56.95;99969.02;105867;1277;97728;-66
2022/04/17 00:54:56;;;;;;;22.50;7.90;;;;;;;3.33;57.15;99967.42;105871;1278;107275;-65
2022/04/17 00:57:24;;;;;;;21.40;7.40;;;;;;;3.32;56.56;99968.13;105953;1277;96674;-65
2022/04/17 00:59:56;;;;;;;24.40;8.10;;;;;;;3.33;57.16;99965.48;105956;1277;99312;-66
2022/04/17 01:02:24;;;;;;;18.50;7.00;;;;;;;3.35;57.16;99964.73;105874;1277;113910;-67
2022/04/17 01:04:53;;;;;;;19.60;6.90;;;;;;;3.36;56.78;99962.59;105902;1277;99227;-67
2022/04/17 01:07:23;;;;;;;19.00;7.30;;;;;;;3.36;56.82;99963.80;105844;1277;108166;-66
2022/04/17 01:09:55;;;;;;;20.90;7.50;;;;;;;3.38;57.06;99963.07;106178;1276;99225;-68
2022/04/17 01:12:24;;;;;;;19.70;7.00;;;;;;;3.39;57.13;99960.23;106034;1276;99220;-66
2022/04/17 01:14:52;;;;;;;20.90;7.90;;;;;;;3.39;57.12;99960.05;106056;1277;113122;-66
2022/04/17 01:17:23;;;;;;;19.30;7.80;;;;;;;3.40;56.96;99960.04;105976;1277;97049;-66
2022/04/17 01:19:50;;;;;;;20.60;7.50;;;;;;;3.39;57.08;99957.45;105942;1277;106413;-66
2022/04/17 01:22:18;;;;;;;22.50;7.30;;;;;;;3.38;57.05;99957.80;105805;1277;99237;-66
2022/04/17 01:27:41;;;;;;;22.10;7.30;;;;;;;3.37;56.92;99952.91;105931;1277;113104;-67
2022/04/17 01:30:12;;;;;;;24.80;8.50;;;;;;;3.37;56.98;99950.27;105963;1277;99321;-66
2022/04/17 01:32:40;;;;;;;21.70;8.10;;;;;;;3.38;56.77;99949.40;105954;1277;107924;-61
2022/04/17 01:35:11;;;;;;;22.00;7.30;;;;;;;3.37;57.29;99948.19;105972;1277;99288;-67
2022/04/17 01:37:39;;;;;;;21.50;7.90;;;;;;;3.37;56.95;99943.98;105840;1279;99267;-66
2022/04/17 01:40:11;;;;;;;22.60;8.10;;;;;;;3.37;57.14;99941.72;105882;1277;113419;-66
2022/04/17 01:42:39;;;;;;;23.60;8.90;;;;;;;3.34;57.09;99938.98;105969;1277;99231;-67
2022/04/17 01:45:11;;;;;;;21.80;7.50;;;;;;;3.32;57.20;99937.99;105938;1277;110095;-66
2022/04/17 01:47:39;;;;;;;22.10;7.50;;;;;;;3.31;56.98;99936.77;105919;1277;99260;-65
2022/04/17 01:50:11;;;;;;;24.00;8.80;;;;;;;3.31;56.96;99932.05;105880;1277;96650;-67
2022/04/17 01:52:39;;;;;;;20.60;7.60;;;;;;;3.32;57.21;99935.02;106042;1276;113174;-66
2022/04/17 01:55:09;;;;;;;23.30;8.00;;;;;;;3.32;57.32;99936.58;105972;1277;96556;-66
2022/04/17 01:57:37;;;;;;;24.40;8.00;;;;;;;3.30;56.92;99932.27;105975;1277;108403;-64
2022/04/17 02:00:08;;;;;;;22.40;7.70;;;;;;;3.27;57.12;99933.55;105926;1276;99081;-66
2022/04/17 02:02:36;;;;;;;20.00;7.10;;;;;;;3.26;57.00;99935.33;105977;1277;96647;-67
2022/04/17 02:05:08;;;;;;;20.00;8.10;;;;;;;3.25;57.21;99934.86;105996;1277;113375;-65
2022/04/17 02:07:37;;;;;;;19.00;7.30;;;;;;;3.25;57.26;99936.98;105976;1277;97586;-67
2022/04/17 02:10:08;;;;;;;18.60;6.70;;;;;;;3.22;57.51;99939.83;105913;1277;108287;-66
2022/04/17 02:12:36;;;;;;;17.90;6.80;;;;;;;3.22;57.09;99936.71;105916;1277;99306;-66
2022/04/17 02:15:09;;;;;;;18.10;6.80;;;;;;;3.19;57.04;99936.97;105962;1278;99319;-67
2022/04/17 02:17:39;;;;;;;17.10;6.20;;;;;;;3.15;57.21;99938.45;105865;1278;113367;-66
2022/04/17 02:20:13;;;;;;;22.80;8.00;;;;;;;3.12;57.11;99938.54;105851;1277;99313;-66
2022/04/17 02:22:40;;;;;;;19.40;6.90;;;;;;;3.09;57.14;99933.02;105878;1277;107732;-65
2022/04/17 02:25:13;;;;;;;19.80;7.20;;;;;;;3.04;57.25;99935.96;105845;1277;99237;-66
2022/04/17 02:27:41;;;;;;;19.60;7.90;;;;;;;2.99;57.49;99932.44;105881;1277;99298;-64
2022/04/17 02:30:11;;;;;;;21.90;7.40;;;;;;;2.95;57.20;99930.78;105811;1279;113358;-65
2022/04/17 02:32:45;;;;;;;21.10;8.00;;;;;;;2.93;57.36;99931.02;105846;1279;96962;-67
2022/04/17 02:35:14;;;;;;;19.00;7.20;;;;;;;2.90;57.26;99933.21;105917;1277;107885;-66
2022/04/17 02:37:44;;;;;;;19.40;8.00;;;;;;;2.85;57.29;99934.20;105981;1277;99288;-66
2022/04/17 02:40:15;;;;;;;18.60;7.40;;;;;;;2.80;57.32;99933.09;105802;1277;99493;-65
2022/04/17 02:42:43;;;;;;;19.20;6.90;;;;;;;2.77;57.40;99937.74;105855;1277;113363;-66
2022/04/17 02:45:16;;;;;;;21.30;8.00;;;;;;;2.73;57.08;99932.25;105856;1278;97940;-66
2022/04/17 02:47:50;;;;;;;22.00;8.20;;;;;;;2.67;57.39;99931.51;105927;1276;107764;-67
2022/04/17 02:50:23;;;;;;;19.00;7.50;;;;;;;2.64;57.43;99927.41;105955;1276;96640;-66
2022/04/17 02:52:57;;;;;;;20.30;7.90;;;;;;;2.60;57.37;99928.73;105994;1276;99231;-66
2022/04/17 02:55:26;;;;;;;19.60;7.30;;;;;;;2.56;57.26;99927.44;106051;1277;114001;-66
2022/04/17 02:57:54;;;;;;;20.10;7.80;;;;;;;2.52;57.46;99927.88;106042;1277;100958;-64
2022/04/17 03:00:31;;;;;;;20.70;7.50;;;;;;;2.51;57.37;99927.03;105960;1277;108512;-65
2022/04/17 03:05:50;;;;;;;20.90;7.70;;;;;;;2.45;57.28;99926.48;106001;1276;99242;-66
2022/04/17 03:08:20;;;;;;;20.70;7.90;;;;;;;2.43;57.17;99929.17;106007;1276;113869;-66
2022/04/17 03:10:50;;;;;;;23.60;9.40;;;;;;;2.41;57.24;99928.86;105922;1276;99256;-65
2022/04/17 03:13:19;;;;;;;21.30;8.20;;;;;;;2.39;57.41;99931.38;105859;1276;108477;-65
2022/04/17 03:15:48;;;;;;;20.40;7.90;;;;;;;2.35;57.29;99931.27;105845;1277;99346;-65
2022/04/17 03:18:18;;;;;;;21.80;8.70;;;;;;;2.31;57.20;99932.42;105848;1277;99250;-66
2022/04/17 03:20:47;;;;;;;21.70;8.00;;;;;;;2.27;57.51;99932.54;105798;1277;113365;-66
2022/04/17 03:23:18;;;;;;;22.90;8.70;;;;;;;2.24;57.50;99937.85;105940;1277;99328;-70
2022/04/17 03:25:47;;;;;;;22.10;7.70;;;;;;;2.23;57.31;99937.88;105940;1278;108374;-69
2022/04/17 03:28:15;;;;;;;21.80;8.40;;;;;;;2.22;57.43;99937.20;105828;1277;99252;-68
2022/04/17 03:30:43;;;;;;;21.50;8.70;;;;;;;2.20;57.39;99935.15;105870;1276;99476;-66
2022/04/17 03:33:12;;;;;;;20.90;7.80;;;;;;;2.18;57.46;99939.77;105901;1277;113387;-67
2022/04/17 03:35:48;;;;;;;18.90;8.10;;;;;;;2.16;57.33;99945.57;105897;1276;96624;-68
2022/04/17 03:38:16;;;;;;;19.80;7.90;;;;;;;2.13;57.53;99944.59;105869;1276;108234;-68
2022/04/17 03:40:44;;;;;;;19.00;7.90;;;;;;;2.11;57.33;99940.45;105938;1276;99260;-69
2022/04/17 03:43:15;;;;;;;19.60;7.80;;;;;;;2.07;57.50;99942.45;105646;1277;377220;-66
2022/04/17 03:45:47;;;;;;;21.50;9.20;;;;;;;2.06;57.65;99949.46;105910;1276;113187;-65
2022/04/17 03:48:18;;;;;;;23.30;10.10;;;;;;;2.06;57.59;99950.87;105980;1276;96667;-63
2022/04/17 03:50:49;;;;;;;25.00;9.60;;;;;;;2.06;57.79;99953.33;105934;1276;108465;-65
2022/04/17 03:53:18;;;;;;;26.10;11.90;;;;;;;2.06;57.54;99948.96;105878;1276;99346;-69
2022/04/17 03:55:48;;;;;;;24.40;10.30;;;;;;;2.04;57.67;99946.20;105881;1276;99306;-65
2022/04/17 03:58:16;;;;;;;24.40;10.70;;;;;;;2.03;57.57;99945.71;105890;1276;113363;-66
2022/04/17 04:00:44;;;;;;;25.60;9.60;;;;;;;2.03;57.62;99944.46;105904;1276;99222;-66
2022/04/17 04:03:17;;;;;;;26.30;10.80;;;;;;;2.04;57.87;99947.59;105862;1276;110488;-66
2022/04/17 04:05:49;;;;;;;25.80;10.30;;;;;;;2.06;57.78;99947.36;105927;1276;99353;-66
2022/04/17 04:08:19;;;;;;;25.00;10.70;;;;;;;2.07;57.84;99946.12;106052;1276;97698;-67
2022/04/17 04:10:48;;;;;;;25.60;11.30;;;;;;;2.08;57.88;99944.70;105925;1278;113387;-66
2022/04/17 04:13:19;;;;;;;26.30;9.90;;;;;;;2.09;57.88;99943.11;105897;1277;99323;-63
2022/04/17 04:15:49;;;;;;;23.60;9.70;;;;;;;2.08;57.82;99939.80;105908;1277;107780;-66
2022/04/17 04:18:20;;;;;;;25.00;10.60;;;;;;;2.09;57.67;99942.41;105879;1277;99233;-66
2022/04/17 04:20:47;;;;;;;26.20;10.50;;;;;;;2.11;57.73;99941.33;105848;1278;99295;-66
2022/04/17 04:23:21;;;;;;;25.80;10.90;;;;;;;2.13;57.90;99940.05;105881;1277;113324;-67
2022/04/17 04:25:48;;;;;;;24.90;10.20;;;;;;;2.17;57.93;99940.67;105984;1276;99350;-68
2022/04/17 04:28:36;;;;;;;24.80;9.50;;;;;;;2.21;57.99;99941.62;105994;1276;108491;-67
2022/04/17 04:31:11;;;;;;;24.60;9.80;;;;;;;2.26;57.99;99943.22;105975;1276;99289;-66
2022/04/17 04:33:41;;;;;;;23.60;10.00;;;;;;;2.31;58.07;99945.91;105901;1276;99243;-68
2022/04/17 04:36:11;;;;;;;20.30;8.70;;;;;;;2.36;58.05;99947.71;105827;1276;113113;-66
2022/04/17 04:38:40;;;;;;;24.00;9.60;;;;;;;2.42;58.30;99947.59;105860;1279;96660;-66
2022/04/17 04:41:09;;;;;;;20.30;8.50;;;;;;;2.47;58.26;99947.63;105636;1280;107884;-67
2022/04/17 04:43:37;;;;;;;21.30;8.40;;;;;;;2.51;58.25;99949.09;106264;1276;99303;-66
2022/04/17 04:46:08;;;;;;;19.20;7.80;;;;;;;2.56;58.36;99948.44;105744;1276;99211;-67
2022/04/17 04:51:29;;;;;;;20.70;8.70;;;;;;;2.71;58.44;99957.52;105765;1276;99328;-67
2022/04/17 04:53:57;;;;;;;18.60;7.70;;;;;;;2.76;58.29;99956.16;105707;1276;108464;-67
2022/04/17 04:56:26;;;;;;;20.90;9.00;;;;;;;2.82;58.32;99957.23;105778;1277;99343;-67
2022/04/17 04:58:53;;;;;;;20.50;8.10;;;;;;;2.89;58.49;99961.44;105830;1277;99270;-67
2022/04/17 05:01:21;;;;;;;20.50;8.50;;;;;;;2.94;58.24;99961.48;105811;1276;113397;-69
2022/04/17 05:03:49;;;;;;;20.50;8.70;;;;;;;3.00;58.58;99960.97;105834;1278;97464;-67
2022/04/17 05:06:18;;;;;;;20.40;7.90;;;;;;;3.07;58.59;99963.06;105856;1276;108387;-66
2022/04/17 05:08:46;;;;;;;20.30;7.70;;;;;;;3.12;58.52;99958.17;105933;1276;99250;-65
2022/04/17 05:11:14;;;;;;;21.30;8.60;;;;;;;3.16;58.67;99959.30;106003;1276;99236;-67
2022/04/17 05:13:43;;;;;;;20.20;8.50;;;;;;;3.19;58.53;99961.15;105914;1277;113356;-66
2022/04/17 05:16:13;;;;;;;22.80;9.20;;;;;;;3.22;58.56;99961.76;105862;1277;99228;-66
2022/04/17 05:18:42;;;;;;;20.20;8.60;;;;;;;3.25;58.67;99967.45;105868;1276;107923;-65
2022/04/17 05:21:11;;;;;;;19.90;8.00;;;;;;;3.30;58.62;99970.66;105901;1277;99908;-64
2022/04/17 05:23:39;;;;;;;20.80;8.50;;;;;;;3.32;58.37;99974.26;105918;1277;99231;-64
2022/04/17 05:26:07;;;;;;;22.90;8.90;;;;;;;3.38;58.58;99977.27;105890;1277;111950;-65
2022/04/17 05:28:35;;;;;;;22.20;8.60;;;;;;;3.46;58.77;99975.81;105949;1276;99238;-64
2022/04/17 05:31:03;;;;;;;23.20;9.10;;;;;;;3.52;58.68;99977.21;105920;1276;108342;-68
2022/04/17 05:33:31;;;;;;;21.50;8.10;;;;;;;3.57;58.70;99979.87;105842;1276;99224;-67
2022/04/17 05:35:59;;;;;;;21.50;8.20;;;;;;;3.64;58.71;99977.95;105920;1276;99230;-66
2022/04/17 05:38:27;;;;;;;23.20;9.60;;;;;;;3.69;58.47;99974.61;105916;1277;113358;-67
2022/04/17 05:40:56;;;;;;;20.00;8.10;;;;;;;3.71;58.91;99975.41;105965;1276;97486;-68
2022/04/17 05:43:24;;;;;;;19.50;7.50;;;;;;;3.77;58.77;99972.28;105908;1277;107748;-67
2022/04/17 05:45:53;;;;;;;22.90;8.60;;;;;;;3.84;58.96;99972.43;105816;1278;97696;-70
2022/04/17 05:48:21;;;;;;;17.60;7.40;;;;;;;3.92;58.78;99977.10;105811;1277;99225;-67
2022/04/17 05:50:49;;;;;;;21.20;8.50;;;;;;;3.99;58.79;99975.30;105801;1276;113208;-68
2022/04/17 05:53:18;;;;;;;19.40;7.70;;;;;;;4.06;58.85;99974.73;105927;1276;97683;-67
2022/04/17 05:55:47;;;;;;;20.60;8.90;;;;;;;4.13;58.94;99975.21;105905;1276;107887;-65
2022/04/17 05:58:15;;;;;;;20.80;8.20;;;;;;;4.20;58.72;99976.94;105846;1276;99253;-67
2022/04/17 06:00:44;;;;;;;19.40;7.90;;;;;;;4.27;58.83;99977.40;105946;1277;98338;-66
2022/04/17 06:03:15;;;;;;;18.00;7.90;;;;;;;4.37;59.08;99977.80;105856;1276;112839;-66
2022/04/17 06:05:44;;;;;;;20.50;8.10;;;;;;;4.43;58.76;99979.52;105916;1276;97658;-66
2022/04/17 06:08:13;;;;;;;20.30;8.50;;;;;;;4.50;58.92;99982.13;105917;1276;108172;-67
2022/04/17 06:10:41;;;;;;;20.70;8.60;;;;;;;4.57;58.86;99983.64;106076;1276;99301;-65
2022/04/17 06:13:10;;;;;;;20.60;8.10;;;;;;;4.67;58.89;99984.54;105956;1276;99324;-67
2022/04/17 06:15:40;;;;;;;18.70;8.50;;;;;;;4.79;58.97;99989.08;105973;1276;113818;-66
2022/04/17 06:18:10;;;;;;;20.60;7.60;;;;;;;4.89;58.92;99985.89;105928;1277;98362;-67
2022/04/17 06:20:38;;;;;;;20.40;8.50;;;;;;;4.99;58.89;99982.58;105883;1276;107798;-67
2022/04/17 06:23:07;;;;;;;20.10;7.80;;;;;;;5.10;59.06;99983.25;105852;1276;99252;-65
2022/04/17 06:25:35;;;;;;;19.20;7.40;;;;;;;5.25;58.97;99978.69;105824;1276;96667;-64
2022/04/17 06:28:03;;;;;;;17.00;7.10;;;;;;;5.40;58.95;99973.03;105873;1277;113146;-65
2022/04/17 06:30:31;;;;;;;16.10;6.40;;;;;;;5.56;59.06;99972.96;105947;1276;99269;-65
2022/04/17 06:32:59;;;;;;;17.90;7.00;;;;;;;5.73;59.01;99977.98;105963;1276;110681;-66
2022/04/17 06:35:27;;;;;;;17.40;6.90;;;;;;;5.88;58.99;99978.11;105811;1276;99385;-68
2022/04/17 06:37:56;;;;;;;16.80;6.50;;;;;;;6.05;59.09;99980.84;106019;1276;99244;-66
2022/04/17 06:40:28;;;;;;;19.50;7.60;;;;;;;6.17;59.15;99991.27;105907;1277;112699;-68
2022/04/17 06:43:00;;;;;;;16.60;6.90;;;;;;;6.28;59.00;99991.55;105893;1276;99329;-67
2022/04/17 06:45:29;;;;;;;15.60;5.90;;;;;;;6.42;58.94;99982.70;105896;1276;107930;-66
2022/04/17 06:47:57;;;;;;;18.30;6.80;;;;;;;6.53;58.94;99983.30;105924;1276;99323;-66
2022/04/17 06:50:25;;;;;;;20.50;7.80;;;;;;;6.62;58.99;99973.77;105962;1276;99247;-67
2022/04/17 06:52:53;;;;;;;15.10;6.10;;;;;;;6.72;58.92;99974.59;105856;1276;113415;-66
2022/04/17 06:55:21;;;;;;;14.10;5.80;;;;;;;6.72;58.87;99973.02;105812;1276;99072;-66
2022/04/17 06:57:50;;;;;;;12.90;5.20;;;;;;;6.67;58.99;99977.29;105878;1276;108420;-67
2022/04/17 07:00:21;;;;;;;10.60;4.70;;;;;;;6.65;59.20;99972.59;105943;1276;99138;-67
2022/04/17 07:02:51;;;;;;;14.80;5.90;;;;;;;6.63;59.00;99969.35;105837;1276;98082;-66
2022/04/17 07:05:19;;;;;;;15.20;5.20;;;;;;;6.61;58.95;99971.88;105640;1277;112768;-66
2022/04/17 07:07:56;;;;;;;14.80;5.00;;;;;;;6.60;58.81;99974.58;105873;1276;99259;-66
2022/04/17 07:10:25;;;;;;;13.70;5.30;;;;;;;6.60;58.81;99977.41;105882;1276;107891;-66
2022/04/17 07:12:53;;;;;;;13.90;5.40;;;;;;;6.60;58.94;99979.32;105842;1276;100056;-66
2022/04/17 07:15:24;;;;;;;14.10;5.20;;;;;;;6.83;58.69;99978.00;105905;1276;96625;-67
2022/04/17 07:17:54;;;;;;;13.90;5.00;;;;;;;7.45;58.17;99977.99;105867;1276;113393;-66
2022/04/17 07:20:24;;;;;;;14.20;5.50;;;;;;;8.47;57.66;99970.17;105914;1277;99228;-67
2022/04/17 07:22:52;;;;;;;8.50;4.60;;;;;;;10.22;56.51;99966.84;105734;1277;109121;-67
2022/04/17 07:25:20;;;;;;;9.70;4.50;;;;;;;12.19;55.77;99965.29;105709;1277;99104;-67
2022/04/17 07:27:50;;;;;;;12.60;4.60;;;;;;;14.26;55.52;99954.80;105881;1276;100064;-71
2022/04/17 07:30:21;;;;;;;12.10;5.00;;;;;;;16.11;55.24;99954.73;105825;1276;112752;-69
2022/04/17 07:32:52;;;;;;;10.50;4.20;;;;;;;17.90;55.33;99946.79;105908;1276;99174;-69
2022/04/17 07:35:22;;;;;;;11.10;4.20;;;;;;;19.43;55.26;99946.42;105793;1276;108493;-67
2022/04/17 07:37:53;;;;;;;10.40;4.50;;;;;;;20.90;55.61;99944.13;105829;1276;99237;-70
2022/04/17 07:40:25;;;;;;;9.80;4.60;;;;;;;21.96;55.14;99939.08;105878;1276;99273;-69
2022/04/17 07:42:55;;;;;;;8.60;4.60;;;;;;;23.07;55.37;99936.73;105784;1277;112769;-69
2022/04/17 07:45:23;;;;;;;8.40;4.00;;;;;;;24.04;55.50;99931.20;105850;1277;99245;-71
2022/04/17 07:47:52;;;;;;;9.10;4.50;;;;;;;24.43;55.68;99931.94;105842;1276;107736;-69
2022/04/17 07:50:23;;;;;;;10.90;4.60;;;;;;;24.10;56.42;99933.46;105861;1276;99307;-73
2022/04/17 07:52:53;;;;;;;7.60;3.70;;;;;;;23.45;57.55;99931.05;105901;1276;96637;-69
2022/04/17 07:55:22;;;;;;;5.60;3.40;;;;;;;22.09;57.92;99929.75;105819;1276;113751;-68
2022/04/17 08:00:51;;;;;;;5.60;3.30;;;;;;;19.56;57.05;99932.45;105739;1276;108311;-67
2022/04/17 08:03:35;;;;;;;6.80;3.30;;;;;;;20.03;55.55;99926.95;105794;1276;99220;-70
2022/04/17 08:06:07;;;;;;;8.00;3.10;;;;;;;19.17;55.96;99925.35;105852;1276;99230;-68
2022/04/17 08:08:37;;;;;;;6.10;3.30;;;;;;;18.31;56.07;99921.34;105785;1276;113398;-69
2022/04/17 08:11:07;;;;;;;5.60;3.40;;;;;;;17.47;56.44;99925.30;106154;1276;99674;-70
2022/04/17 08:13:36;;;;;;;4.50;2.90;;;;;;;16.58;55.88;99927.80;105960;1276;107718;-68
2022/04/17 08:16:06;;;;;;;4.00;2.80;;;;;;;15.69;55.80;99931.27;105806;1276;99261;-66
2022/04/17 08:18:41;;;;;;;7.50;3.40;;;;;;;15.01;55.46;99926.18;105824;1276;99350;-68
2022/04/17 08:21:10;;;;;;;7.90;3.50;;;;;;;14.48;55.26;99931.83;105858;1276;113625;-69
2022/04/17 08:23:38;;;;;;;9.60;3.90;;;;;;;14.16;55.38;99928.44;106050;1276;99256;-69
2022/04/17 08:26:07;;;;;;;7.20;2.90;;;;;;;13.85;54.90;99922.37;105892;1276;108394;-71
2022/04/17 08:28:35;;;;;;;8.50;3.50;;;;;;;13.43;54.51;99929.94;105890;1276;99947;-69
2022/04/17 08:31:03;;;;;;;4.90;2.20;;;;;;;13.25;54.21;99924.63;105963;1276;99244;-68
2022/04/17 08:33:33;;;;;;;4.80;2.60;;;;;;;12.94;54.06;99929.39;106020;1276;113141;-67
2022/04/17 08:36:03;;;;;;;7.60;3.50;;;;;;;12.65;53.78;99932.06;105965;1276;99314;-68
2022/04/17 08:38:31;;;;;;;7.80;3.10;;;;;;;12.31;53.74;99931.87;105899;1276;107317;-70
2022/04/17 08:41:03;;;;;;;8.70;3.10;;;;;;;11.97;53.61;99928.52;105849;1277;99363;-69
2022/04/17 08:43:32;;;;;;;15.30;5.30;;;;;;;11.72;53.59;99925.84;105867;1276;99225;-69
2022/04/17 08:46:02;;;;;;;13.00;4.40;;;;;;;11.45;53.28;99925.38;105834;1276;113299;-67
2022/04/17 08:48:34;;;;;;;7.50;3.40;;;;;;;11.19;53.18;99918.25;105856;1276;99940;-70
2022/04/17 08:51:06;;;;;;;14.90;4.40;;;;;;;10.98;52.90;99917.40;105845;1276;107765;-69
2022/04/17 08:53:36;;;;;;;11.10;3.60;;;;;;;11.34;52.56;99912.86;106012;1276;96593;-68
2022/04/17 08:56:06;;;;;;;14.50;4.50;;;;;;;12.59;52.17;99901.81;105803;1276;99209;-68
2022/04/17 08:58:34;;;;;;;7.70;3.10;;;;;;;13.07;52.48;99900.90;105785;1276;113560;-68
2022/04/17 09:01:03;;;;;;;8.10;3.50;;;;;;;13.06;52.39;99899.95;105809;1276;99220;-70
2022/04/17 09:03:35;;;;;;;7.70;3.10;;;;;;;12.94;52.14;99897.17;105838;1276;108326;-65
2022/04/17 09:06:07;;;;;;;8.40;3.20;;;;;;;12.73;52.28;99901.14;105856;1276;97837;-68
2022/04/17 09:08:58;;;;;;;6.10;2.80;;;;;;;12.57;51.93;99896.48;105889;1276;99329;-68
2022/04/17 09:11:34;;;;;;;8.20;3.50;;;;;;;13.26;51.41;99893.14;105881;1276;113439;-68
2022/04/17 09:14:06;;;;;;;5.30;2.50;;;;;;;14.40;51.38;99883.30;105800;1276;99013;-67
2022/04/17 09:16:39;;;;;;;6.00;2.60;;;;;;;15.34;51.33;99880.04;105855;1276;108371;-69
2022/04/17 09:19:18;;;;;;;4.30;2.20;;;;;;;15.87;51.40;99873.92;105959;1276;99269;-69
2022/04/17 09:21:55;;;;;;;9.10;3.60;;;;;;;15.63;51.34;99861.50;105851;1276;99226;-67
2022/04/17 09:24:25;;;;;;;4.50;2.60;;;;;;;15.15;50.94;99875.13;105828;1276;112770;-68
2022/04/17 09:26:56;;;;;;;11.60;4.90;;;;;;;14.71;50.99;99875.11;105804;1278;99885;-68
2022/04/17 09:29:29;;;;;;;10.20;3.90;;;;;;;14.38;51.06;99879.73;105900;1276;107872;-69
2022/04/17 09:32:01;;;;;;;8.90;4.50;;;;;;;14.12;51.08;99874.34;105911;1276;99272;-67
2022/04/17 09:34:50;;;;;;;9.70;3.80;;;;;;;13.85;50.99;99871.34;105847;1276;99310;-68
2022/04/17 09:37:23;;;;;;;5.60;2.90;;;;;;;13.41;50.62;99870.07;105916;1276;115307;-67
2022/04/17 09:39:54;;;;;;;7.50;3.30;;;;;;;13.09;50.42;99867.70;105853;1276;99234;-66
2022/04/17 09:42:25;;;;;;;9.40;3.90;;;;;;;13.23;50.29;99859.88;105763;1276;108558;-67
2022/04/17 09:44:57;;;;;;;9.20;3.50;;;;;;;13.93;49.96;99860.39;105746;1276;98072;-69
2022/04/17 09:47:28;;;;;;;12.50;5.60;;;;;;;14.57;49.52;99852.84;105857;1276;99319;-68
2022/04/17 09:50:01;;;;;;;38.90;23.50;;;;;;;14.23;49.76;99849.80;105813;1276;112485;-69
2022/04/17 09:52:39;;;;;;;12.60;5.00;;;;;;;14.04;49.94;99851.66;105890;1276;99245;-66
2022/04/17 09:55:08;;;;;;;11.10;4.40;;;;;;;14.07;49.85;99846.23;105865;1276;108435;-66
2022/04/17 09:57:41;;;;;;;6.30;3.20;;;;;;;14.14;49.97;99849.06;105809;1276;99195;-66
2022/04/17 10:00:15;;;;;;;5.70;2.70;;;;;;;14.17;50.11;99842.63;105827;1276;99336;-68
2022/04/17 10:02:48;;;;;;;5.10;2.70;;;;;;;14.21;49.83;99840.53;105744;1276;112510;-68
2022/04/17 10:05:20;;;;;;;5.80;2.70;;;;;;;14.12;49.59;99840.46;105924;1276;99340;-67
2022/04/17 10:07:50;;;;;;;4.50;2.30;;;;;;;13.95;49.43;99832.45;105945;1276;107710;-66
2022/04/17 10:10:18;;;;;;;3.60;1.80;;;;;;;13.63;49.22;99832.64;105922;1276;99372;-68
2022/04/17 10:12:47;;;;;;;8.30;3.50;;;;;;;13.43;49.07;99828.19;106039;1276;99318;-67
2022/04/17 10:15:17;;;;;;;4.30;2.40;;;;;;;13.29;48.96;99829.19;105906;1276;113421;-67
2022/04/17 10:17:49;;;;;;;5.30;2.60;;;;;;;13.16;48.83;99826.39;105852;1276;99251;-67
2022/04/17 10:20:19;;;;;;;4.60;2.30;;;;;;;13.11;48.89;99822.09;105866;1276;108275;-66
2022/04/17 10:22:57;;;;;;;5.40;2.50;;;;;;;13.20;48.97;99814.90;105892;1276;99220;-65
2022/04/17 10:25:31;;;;;;;6.40;2.80;;;;;;;13.34;48.77;99808.00;105923;1276;99346;-68
2022/04/17 10:28:04;;;;;;;8.30;3.10;;;;;;;13.40;48.67;99798.86;105899;1277;113537;-67
2022/04/17 10:30:42;;;;;;;10.00;3.60;;;;;;;13.49;48.61;99791.06;105918;1276;99325;-66
2022/04/17 10:33:24;;;;;;;6.90;3.40;;;;;;;13.36;48.09;99795.97;105836;1279;107860;-68
2022/04/17 10:36:04;;;;;;;4.80;2.70;;;;;;;13.05;47.64;99790.63;105801;1278;97763;-67
2022/04/17 10:39:18;;;;;;;5.10;2.40;;;;;;;12.81;47.70;99785.77;106015;1276;99198;-68
2022/04/17 10:41:51;;;;;;;4.00;2.40;;;;;;;12.65;47.84;99783.17;105847;1279;112366;-70
2022/04/17 10:44:19;;;;;;;4.70;2.20;;;;;;;12.44;47.73;99781.03;105892;1279;99915;-70
2022/04/17 10:46:53;;;;;;;5.20;2.30;;;;;;;12.25;47.45;99786.61;105849;1277;108671;-68
2022/04/17 10:49:29;;;;;;;4.30;2.10;;;;;;;12.10;47.42;99794.00;105854;1276;99218;-68
2022/04/17 10:52:00;;;;;;;5.60;2.40;;;;;;;11.98;47.22;99787.64;105918;1276;99232;-69
2022/04/17 10:54:51;;;;;;;6.10;2.20;;;;;;;11.83;47.24;99786.33;105822;1278;112071;-70
2022/04/17 10:57:24;;;;;;;5.70;2.60;;;;;;;11.75;47.10;99784.19;105772;1279;96549;-70
2022/04/17 11:00:28;;;;;;;5.40;2.40;;;;;;;11.72;47.04;99781.20;105959;1276;107778;-69
2022/04/17 11:03:23;;;;;;;21.00;6.60;;;;;;;11.75;47.05;99771.23;105879;1276;99304;-66
2022/04/17 11:06:09;;;;;;;5.60;2.40;;;;;;;11.87;47.03;99763.12;105902;1276;99223;-65
2022/04/17 11:08:56;;;;;;;4.00;1.80;;;;;;;12.00;46.82;99759.47;105848;1278;112789;-69
2022/04/17 11:11:35;;;;;;;2.10;1.70;;;;;;;12.11;46.79;99749.16;105845;1276;96551;-67
2022/04/17 11:14:10;;;;;;;3.70;2.10;;;;;;;12.32;46.92;99748.27;105829;1276;107734;-67
2022/04/17 11:16:53;;;;;;;5.20;2.00;;;;;;;12.49;46.94;99745.27;105877;1276;99259;-68
2022/04/17 11:19:24;;;;;;;4.50;2.00;;;;;;;12.62;46.64;99732.42;105785;1277;97714;-66
2022/04/17 11:22:03;;;;;;;5.80;2.20;;;;;;;12.61;46.49;99732.71;105920;1276;113903;-68
2022/04/17 11:24:57;;;;;;;6.30;2.90;;;;;;;12.52;46.38;99735.81;105819;1276;97787;-67
2022/04/17 11:27:32;;;;;;;7.10;3.00;;;;;;;12.36;46.33;99734.41;105854;1276;108451;-71
2022/04/17 11:30:03;;;;;;;5.20;2.60;;;;;;;12.26;46.20;99733.15;105881;1276;99308;-67
2022/04/17 11:32:48;;;;;;;5.40;2.50;;;;;;;12.14;46.09;99729.25;105764;1276;97209;-68
2022/04/17 11:35:25;;;;;;;3.40;2.20;;;;;;;12.00;46.00;99729.21;105916;1276;112717;-68
2022/04/17 11:37:57;;;;;;;12.00;4.70;;;;;;;11.98;46.16;99721.91;105927;1276;99284;-68
2022/04/17 11:40:29;;;;;;;8.90;3.20;;;;;;;12.05;46.01;99719.27;105846;1279;109004;-68
2022/04/17 11:43:10;;;;;;;3.70;2.10;;;;;;;12.11;46.11;99710.52;105728;1279;97007;-65
2022/04/17 11:45:41;;;;;;;3.50;2.00;;;;;;;12.28;46.02;99709.59;105871;1276;99419;-70
2022/04/17 11:48:16;;;;;;;5.00;2.80;;;;;;;12.41;46.08;99709.05;105947;1276;112714;-70
2022/04/17 11:50:51;;;;;;;5.40;2.70;;;;;;;12.44;45.90;99707.52;106707;1276;99307;-69
2022/04/17 11:53:19;;;;;;;5.80;2.60;;;;;;;12.40;45.86;99708.71;105803;1276;106396;-66